Time;durP1;ratioP1;P1;durP2;ratioP2;P2;SDS_P1;SDS_P2;PMS_P1;PMS_P2;Temp;Humidity;BMP_temperature;BMP_pressure;BME280_temperature;BME280_humidity;BME280_pressure;Samples;Min_cycle;Max_cycle;Signal;HPM_P1;HPM_P2
2023/10/26 00:00:47;;;;;;;11.20;8.60;;;;;;;15.57;72.11;98828.47;105125;1256;63870;-57
2023/10/26 00:03:14;;;;;;;14.10;8.30;;;;;;;15.57;72.44;98819.09;106026;1258;60581;-57
2023/10/26 00:05:42;;;;;;;11.00;8.10;;;;;;;15.57;72.67;98816.61;105267;1254;60540;-56
2023/10/26 00:08:10;;;;;;;12.50;8.40;;;;;;;15.58;73.01;98814.33;105256;1255;64919;-57
2023/10/26 00:10:39;;;;;;;10.60;7.70;;;;;;;15.61;73.19;98811.32;105269;1258;61464;-57
2023/10/26 00:13:07;;;;;;;10.70;7.90;;;;;;;15.66;73.25;98810.70;105443;1258;62521;-57
2023/10/26 00:15:38;;;;;;;13.80;8.20;;;;;;;15.72;73.38;98807.44;105446;1255;60449;-56
2023/10/26 00:18:05;;;;;;;11.80;8.00;;;;;;;15.78;73.51;98810.04;102818;1254;3338296;-57
2023/10/26 00:22:03;;;;;;;14.40;7.70;;;;;;;15.60;74.43;98810.71;102263;1294;601128;-56
2023/10/26 00:24:31;;;;;;;10.50;7.50;;;;;;;15.93;73.25;98815.73;104782;1271;59230;-56
2023/10/26 00:26:59;;;;;;;12.00;7.20;;;;;;;16.04;72.92;98818.79;104435;1270;59257;-57
2023/10/26 00:29:26;;;;;;;11.30;7.00;;;;;;;16.12;72.48;98811.73;104466;1267;63089;-57
2023/10/26 00:31:55;;;;;;;9.70;7.10;;;;;;;16.16;72.30;98812.81;104974;1271;61345;-57
2023/10/26 00:34:23;;;;;;;12.20;7.60;;;;;;;16.12;72.45;98809.14;104988;1267;64462;-51
2023/10/26 00:36:51;;;;;;;9.80;7.00;;;;;;;16.09;72.38;98812.36;102161;1267;3199347;-57
2023/10/26 00:39:18;;;;;;;10.40;6.80;;;;;;;16.08;72.36;98809.83;104697;1266;59260;-58
2023/10/26 00:41:50;;;;;;;11.00;7.00;;;;;;;16.09;72.17;98807.13;104535;1264;63296;-56
2023/10/26 00:44:18;;;;;;;11.00;6.80;;;;;;;16.12;72.07;98810.98;104860;1269;61373;-57
2023/10/26 00:46:45;;;;;;;10.50;7.30;;;;;;;16.15;71.88;98813.98;104737;1270;62576;-57
2023/10/26 00:49:15;;;;;;;12.30;7.20;;;;;;;16.18;71.74;98809.94;104476;1267;59732;-56
2023/10/26 00:51:51;;;;;;;12.70;6.70;;;;;;;16.20;71.75;98805.83;104405;1269;59547;-59
2023/10/26 00:54:19;;;;;;;10.50;7.80;;;;;;;16.18;71.68;98811.21;105348;1264;62917;-54
2023/10/26 00:56:47;;;;;;;11.50;8.00;;;;;;;16.14;71.67;98815.93;104603;1269;61568;-55
2023/10/26 00:59:15;;;;;;;10.90;7.80;;;;;;;16.15;71.46;98811.41;104777;1269;62488;-55
2023/10/26 01:01:47;;;;;;;11.20;7.30;;;;;;;16.16;71.30;98807.04;104617;1269;59765;-57
2023/10/26 01:04:16;;;;;;;13.40;6.50;;;;;;;16.14;71.13;98804.91;104808;1268;59737;-56
2023/10/26 01:06:44;;;;;;;12.50;8.00;;;;;;;16.08;71.08;98810.85;104827;1268;64152;-55
2023/10/26 01:09:14;;;;;;;10.90;7.30;;;;;;;16.02;71.12;98815.72;104711;1267;61441;-55
2023/10/26 01:11:42;;;;;;;8.70;7.00;;;;;;;15.96;71.15;98814.14;104772;1267;63803;-54
2023/10/26 01:14:10;;;;;;;8.80;6.60;;;;;;;15.88;71.15;98809.31;104758;1261;59768;-53
2023/10/26 01:16:38;;;;;;;8.10;5.80;;;;;;;15.85;71.03;98810.45;104754;1262;61039;-53
2023/10/26 01:19:08;;;;;;;10.30;6.00;;;;;;;15.84;70.93;98812.32;105031;1260;64199;-55
2023/10/26 01:21:52;;;;;;;9.90;6.70;;;;;;;15.82;70.92;98811.89;105100;1266;60116;-54
2023/10/26 01:24:20;;;;;;;9.40;6.10;;;;;;;15.78;70.84;98808.71;104888;1266;63769;-53
2023/10/26 01:26:48;;;;;;;9.10;5.60;;;;;;;15.70;71.01;98805.30;105590;1266;60210;-55
2023/10/26 01:29:16;;;;;;;11.40;6.40;;;;;;;15.62;71.13;98811.56;104886;1261;59592;-54
2023/10/26 01:31:45;;;;;;;11.40;6.40;;;;;;;15.57;71.18;98816.93;105060;1261;64126;-56
2023/10/26 01:34:13;;;;;;;7.80;5.60;;;;;;;15.55;71.25;98815.89;104929;1266;69709;-55
2023/10/26 01:36:40;;;;;;;8.80;6.00;;;;;;;15.58;71.20;98815.59;104980;1266;64286;-54
2023/10/26 01:39:08;;;;;;;9.40;6.20;;;;;;;15.60;71.38;98817.11;104916;1266;59781;-55
2023/10/26 01:41:36;;;;;;;9.40;6.80;;;;;;;15.61;71.31;98816.25;105193;1266;59784;-56
2023/10/26 01:44:04;;;;;;;9.10;6.00;;;;;;;15.63;71.36;98820.23;105219;1261;62932;-53
2023/10/26 01:46:32;;;;;;;8.80;6.20;;;;;;;15.61;71.49;98820.70;105284;1266;60112;-55
2023/10/26 01:49:01;;;;;;;7.70;6.20;;;;;;;15.57;71.46;98822.80;104963;1263;62453;-57
2023/10/26 01:51:29;;;;;;;7.70;5.80;;;;;;;15.57;71.37;98827.70;105517;1260;59848;-56
2023/10/26 01:53:56;;;;;;;8.60;6.00;;;;;;;15.61;71.38;98828.16;104910;1266;59505;-56
2023/10/26 01:56:24;;;;;;;8.30;5.90;;;;;;;15.63;71.10;98830.02;105505;1266;64109;-57
2023/10/26 01:58:52;;;;;;;9.40;6.50;;;;;;;15.62;70.92;98827.40;104891;1266;61509;-56
2023/10/26 02:01:20;;;;;;;10.70;6.60;;;;;;;15.60;70.79;98830.36;104799;1261;63776;-54
2023/10/26 02:03:48;;;;;;;8.70;6.00;;;;;;;15.55;70.93;98828.20;104799;1266;59761;-55
2023/10/26 02:06:15;;;;;;;9.80;6.40;;;;;;;15.50;70.93;98831.96;108756;1260;57657;-55
2023/10/26 02:08:43;;;;;;;8.40;5.60;;;;;;;15.51;70.86;98833.84;108808;1259;64160;-56
2023/10/26 02:11:11;;;;;;;8.70;5.50;;;;;;;15.55;70.73;98837.04;105769;1264;61520;-55
2023/10/26 02:13:39;;;;;;;8.50;5.30;;;;;;;15.57;70.48;98841.10;104723;1266;63877;-55
2023/10/26 02:16:07;;;;;;;9.10;5.40;;;;;;;15.56;70.48;98838.28;104841;1274;59700;-56
2023/10/26 02:18:35;;;;;;;7.90;5.70;;;;;;;15.54;70.51;98837.62;105281;1260;59625;-56
2023/10/26 02:21:03;;;;;;;8.20;5.20;;;;;;;15.52;69.97;98837.36;104985;1267;62910;-58
2023/10/26 02:23:30;;;;;;;7.00;4.80;;;;;;;15.51;69.86;98839.99;104960;1264;60247;-58
2023/10/26 02:25:58;;;;;;;7.90;5.20;;;;;;;15.51;69.57;98842.98;105376;1261;62497;-58
2023/10/26 02:28:26;;;;;;;8.60;5.30;;;;;;;15.49;69.38;98841.05;104866;1262;59675;-57
2023/10/26 02:30:53;;;;;;;7.70;5.00;;;;;;;15.46;69.30;98843.77;104843;1266;59864;-57
2023/10/26 02:33:21;;;;;;;10.20;4.80;;;;;;;15.42;69.37;98848.61;104811;1260;64122;-57
2023/10/26 02:35:49;;;;;;;8.00;4.80;;;;;;;15.37;69.26;98852.83;104910;1270;61438;-58
2023/10/26 02:38:16;;;;;;;6.50;4.10;;;;;;;15.34;69.22;98851.38;104894;1264;62520;-58
2023/10/26 02:40:44;;;;;;;7.00;4.30;;;;;;;15.35;69.07;98851.26;104849;1265;59694;-57
2023/10/26 02:43:12;;;;;;;7.90;5.20;;;;;;;15.37;69.28;98853.39;105735;1263;59720;-55
2023/10/26 02:45:41;;;;;;;7.50;4.70;;;;;;;15.38;69.36;98854.54;104827;1263;62804;-58
2023/10/26 02:48:08;;;;;;;6.40;4.40;;;;;;;15.35;69.38;98856.92;104837;1266;69453;-59
2023/10/26 02:50:36;;;;;;;7.70;5.20;;;;;;;15.33;69.26;98862.66;104786;1266;62549;-60
2023/10/26 02:53:04;;;;;;;6.90;4.30;;;;;;;15.32;69.26;98863.30;105236;1262;60507;-59
2023/10/26 02:55:31;;;;;;;6.80;4.60;;;;;;;15.34;69.24;98862.25;104960;1264;59638;-60
2023/10/26 02:57:59;;;;;;;7.10;4.60;;;;;;;15.35;69.22;98866.50;104855;1266;64134;-58
2023/10/26 03:00:26;;;;;;;8.50;5.50;;;;;;;15.34;69.21;98867.15;105122;1258;61508;-58
2023/10/26 03:02:54;;;;;;;8.50;4.50;;;;;;;15.33;69.49;98869.19;105105;1262;63763;-57
2023/10/26 03:05:22;;;;;;;7.60;4.80;;;;;;;15.34;69.43;98868.38;105061;1270;59681;-56
2023/10/26 03:07:50;;;;;;;7.40;5.40;;;;;;;15.39;69.36;98869.92;105817;1260;59745;-57
2023/10/26 03:10:20;;;;;;;6.50;4.60;;;;;;;15.45;69.19;98871.14;105228;1261;62841;-58
2023/10/26 03:12:48;;;;;;;6.70;4.50;;;;;;;15.49;69.11;98872.28;105216;1257;61866;-58
2023/10/26 03:15:16;;;;;;;7.00;4.90;;;;;;;15.51;69.09;98871.29;105296;1258;63690;-57
2023/10/26 03:17:44;;;;;;;7.00;5.00;;;;;;;15.52;69.14;98872.15;105321;1258;60890;-58
2023/10/26 03:20:12;;;;;;;7.60;4.70;;;;;;;15.54;69.16;98875.35;105228;1260;59766;-58
2023/10/26 03:22:39;;;;;;;6.30;4.40;;;;;;;15.56;68.82;98877.36;105111;1263;62896;-58
2023/10/26 03:25:08;;;;;;;7.70;4.80;;;;;;;15.56;68.78;98876.66;105165;1261;61322;-57
2023/10/26 03:27:36;;;;;;;6.90;4.40;;;;;;;15.56;68.83;98879.27;106162;1258;64240;-58
2023/10/26 03:30:07;;;;;;;7.80;5.10;;;;;;;15.55;68.72;98878.13;105219;1257;59766;-58
2023/10/26 03:32:34;;;;;;;6.70;4.40;;;;;;;15.51;68.76;98877.31;105540;1258;59559;-58
2023/10/26 03:35:03;;;;;;;8.90;5.00;;;;;;;15.44;68.68;98870.90;105546;1261;64119;-55
2023/10/26 03:37:30;;;;;;;7.10;4.70;;;;;;;15.41;68.93;98871.04;105578;1258;61879;-56
2023/10/26 03:39:58;;;;;;;8.30;4.90;;;;;;;15.42;68.85;98869.17;105632;1261;63700;-55
2023/10/26 03:42:26;;;;;;;6.90;5.00;;;;;;;15.41;68.81;98875.98;105157;1260;59752;-56
2023/10/26 03:44:53;;;;;;;7.80;4.50;;;;;;;15.38;68.83;98880.40;105159;1263;59828;-55
2023/10/26 03:47:21;;;;;;;6.70;4.60;;;;;;;15.33;68.76;98883.73;105088;1260;62900;-56
2023/10/26 03:49:54;;;;;;;6.70;4.20;;;;;;;15.27;68.93;98887.30;105855;1258;60264;-54
2023/10/26 03:52:22;;;;;;;10.10;4.40;;;;;;;15.24;68.77;98890.09;105139;1261;63867;-55
2023/10/26 03:54:50;;;;;;;6.90;3.90;;;;;;;15.24;68.79;98894.37;105201;1261;59688;-57
2023/10/26 03:57:18;;;;;;;6.60;4.00;;;;;;;15.22;68.80;98889.42;105118;1262;59999;-56
2023/10/26 03:59:45;;;;;;;8.00;4.70;;;;;;;15.20;68.93;98894.25;105117;1256;64201;-55
2023/10/26 04:02:13;;;;;;;6.20;4.20;;;;;;;15.17;68.90;98897.16;105031;1261;60129;-56
2023/10/26 04:04:42;;;;;;;7.30;4.40;;;;;;;15.12;68.97;98898.45;104949;1264;63896;-56
2023/10/26 04:07:10;;;;;;;7.10;3.80;;;;;;;15.11;68.90;98903.08;109000;1256;57627;-56
2023/10/26 04:09:37;;;;;;;8.90;4.20;;;;;;;15.12;69.10;98908.06;105328;1256;60673;-56
2023/10/26 04:12:05;;;;;;;6.60;4.20;;;;;;;15.12;69.13;98912.23;104795;1258;62837;-55
2023/10/26 04:14:33;;;;;;;8.30;4.40;;;;;;;15.11;69.06;98916.80;108953;1257;69323;-57
2023/10/26 04:17:00;;;;;;;6.70;4.20;;;;;;;15.09;69.30;98920.64;108687;1257;64197;-56
2023/10/26 04:19:28;;;;;;;6.80;4.10;;;;;;;15.09;69.42;98923.81;105075;1260;59811;-58
2023/10/26 04:21:55;;;;;;;7.00;4.40;;;;;;;15.14;69.41;98930.27;105062;1261;59648;-56
2023/10/26 04:24:23;;;;;;;7.60;4.40;;;;;;;15.17;69.39;98930.66;105105;1257;64354;-55
2023/10/26 04:26:50;;;;;;;8.20;4.80;;;;;;;15.22;69.50;98930.67;105062;1260;60282;-54
2023/10/26 04:29:18;;;;;;;10.20;5.10;;;;;;;15.25;69.69;98931.52;105041;1262;62763;-55
2023/10/26 04:31:45;;;;;;;13.70;5.50;;;;;;;15.26;69.73;98937.48;105891;1257;60600;-54
2023/10/26 04:34:13;;;;;;;8.00;5.30;;;;;;;15.26;69.82;98942.55;105861;1257;60911;-54
2023/10/26 04:36:41;;;;;;;9.20;5.40;;;;;;;15.30;69.67;98945.88;105085;1260;64906;-54
2023/10/26 04:39:09;;;;;;;7.20;4.70;;;;;;;15.33;69.60;98944.85;105091;1260;61885;-54
2023/10/26 04:41:39;;;;;;;10.00;5.50;;;;;;;15.35;69.71;98942.66;105350;1260;64594;-55
2023/10/26 04:44:12;;;;;;;10.50;5.50;;;;;;;15.38;69.60;98938.75;105592;1258;60462;-61
2023/10/26 04:46:41;;;;;;;9.60;5.40;;;;;;;15.38;69.75;98941.56;108987;1256;58343;-62
2023/10/26 04:49:12;;;;;;;9.60;6.10;;;;;;;15.38;69.68;98947.23;109068;1257;64022;-58
2023/10/26 04:51:41;;;;;;;9.50;6.60;;;;;;;15.36;69.77;98951.25;108882;1257;61530;-60
2023/10/26 04:54:09;;;;;;;11.40;6.80;;;;;;;15.36;69.54;98953.61;108856;1258;64604;-60
2023/10/26 04:56:37;;;;;;;11.20;5.90;;;;;;;15.38;69.35;98957.30;109002;1257;58464;-62
2023/10/26 04:59:04;;;;;;;9.70;6.00;;;;;;;15.37;69.35;98964.70;108895;1257;58186;-56
2023/10/26 05:01:32;;;;;;;9.90;7.00;;;;;;;15.33;69.30;98963.92;108951;1256;65360;-55
2023/10/26 05:03:59;;;;;;;9.30;6.30;;;;;;;15.28;69.38;98964.17;105471;1260;60449;-54
2023/10/26 05:06:27;;;;;;;8.80;6.30;;;;;;;15.26;69.47;98963.90;104851;1257;62628;-54
2023/10/26 05:08:55;;;;;;;9.50;6.50;;;;;;;15.23;69.31;98961.91;104892;1257;60688;-56
2023/10/26 05:11:23;;;;;;;9.70;6.70;;;;;;;15.21;69.47;98961.64;109008;1256;58408;-56
2023/10/26 05:13:53;;;;;;;9.00;5.90;;;;;;;15.21;69.56;98966.17;106719;1258;67089;-58
2023/10/26 05:16:21;;;;;;;10.90;5.70;;;;;;;15.21;69.74;98965.27;108972;1257;60407;-57
2023/10/26 05:18:48;;;;;;;10.30;6.60;;;;;;;15.19;69.80;98967.69;108833;1257;63763;-59
2023/10/26 05:21:16;;;;;;;11.90;7.30;;;;;;;15.18;69.85;98969.59;108908;1256;58734;-58
2023/10/26 05:23:43;;;;;;;10.30;6.50;;;;;;;15.20;69.87;98972.59;108943;1258;58491;-58
2023/10/26 05:26:11;;;;;;;9.60;7.00;;;;;;;15.26;69.61;98977.89;108928;1262;65324;-60
2023/10/26 05:28:39;;;;;;;9.90;6.70;;;;;;;15.32;69.35;98980.15;108983;1257;61824;-61
2023/10/26 05:31:06;;;;;;;10.30;6.70;;;;;;;15.37;69.32;98978.98;108991;1257;63747;-59
2023/10/26 05:33:34;;;;;;;10.20;7.20;;;;;;;15.41;69.24;98979.91;107820;1257;60552;-58
2023/10/26 05:36:02;;;;;;;9.80;7.40;;;;;;;15.43;69.28;98979.29;105080;1257;60322;-57
2023/10/26 05:38:30;;;;;;;10.50;6.70;;;;;;;15.44;69.14;98975.30;106092;1257;65005;-58
2023/10/26 05:40:58;;;;;;;12.40;6.60;;;;;;;15.47;69.05;98972.95;105028;1260;60478;-58
2023/10/26 05:43:25;;;;;;;10.00;6.80;;;;;;;15.52;68.71;98971.90;105186;1257;64098;-58
2023/10/26 05:45:54;;;;;;;10.90;6.80;;;;;;;15.55;68.56;98975.00;105746;1256;61183;-58
2023/10/26 05:48:24;;;;;;;10.30;6.80;;;;;;;15.55;68.55;98976.98;105720;1257;60500;-60
2023/10/26 05:50:51;;;;;;;11.40;6.80;;;;;;;15.49;68.09;98980.89;105087;1257;63668;-52
2023/10/26 05:53:19;;;;;;;13.80;7.60;;;;;;;15.41;67.94;98982.92;105069;1257;62037;-57
2023/10/26 05:55:56;;;;;;;9.60;6.80;;;;;;;15.33;68.02;98988.31;105196;1256;63762;-59
2023/10/26 05:58:24;;;;;;;10.60;6.90;;;;;;;15.31;67.98;98991.35;105880;1256;60620;-57
2023/10/26 06:00:52;;;;;;;10.20;7.20;;;;;;;15.32;67.86;98991.48;105883;1260;60555;-58
2023/10/26 06:03:20;;;;;;;11.00;6.50;;;;;;;15.32;67.63;98991.08;105172;1258;64915;-57
2023/10/26 06:05:48;;;;;;;12.30;6.70;;;;;;;15.29;67.51;98991.59;105188;1261;60526;-58
2023/10/26 06:08:15;;;;;;;10.20;6.90;;;;;;;15.24;67.56;98992.55;105055;1257;63790;-56
2023/10/26 06:10:43;;;;;;;11.30;7.20;;;;;;;15.19;67.46;98996.69;105272;1257;60588;-61
2023/10/26 06:13:11;;;;;;;10.40;7.00;;;;;;;15.14;67.39;99000.90;105156;1260;60526;-61
2023/10/26 06:15:38;;;;;;;11.10;7.50;;;;;;;15.14;67.48;98998.39;105087;1257;64907;-61
2023/10/26 06:18:06;;;;;;;9.40;6.50;;;;;;;15.19;67.58;98999.25;105076;1260;61319;-62
2023/10/26 06:20:33;;;;;;;11.60;6.70;;;;;;;15.25;67.43;99003.42;104958;1258;65685;-59
2023/10/26 06:23:02;;;;;;;12.60;7.40;;;;;;;15.27;67.14;99008.44;108945;1257;58200;-62
2023/10/26 06:25:34;;;;;;;13.40;8.00;;;;;;;15.27;66.86;99010.10;106486;1257;60428;-60
2023/10/26 06:28:03;;;;;;;12.30;7.40;;;;;;;15.24;66.76;99011.61;105427;1260;64871;-61
2023/10/26 06:30:31;;;;;;;9.60;6.80;;;;;;;15.23;66.80;99018.54;105096;1257;61365;-60
2023/10/26 06:33:00;;;;;;;13.50;6.50;;;;;;;15.25;66.77;99013.27;105039;1257;64198;-60
2023/10/26 06:35:28;;;;;;;8.70;6.60;;;;;;;15.30;66.62;99007.89;105636;1256;60842;-61
2023/10/26 06:37:56;;;;;;;12.10;7.90;;;;;;;15.36;66.48;99013.34;105162;1260;60373;-60
2023/10/26 06:40:24;;;;;;;9.40;6.60;;;;;;;15.39;66.35;99020.30;105922;1257;63866;-60
2023/10/26 06:42:52;;;;;;;10.80;7.40;;;;;;;15.37;66.35;99021.88;105883;1257;61457;-56
2023/10/26 06:45:23;;;;;;;12.40;7.70;;;;;;;15.36;66.39;99020.31;105828;1256;63741;-59
2023/10/26 06:47:53;;;;;;;10.50;6.80;;;;;;;15.33;66.32;99017.92;105252;1257;60555;-61
2023/10/26 06:50:23;;;;;;;11.40;6.90;;;;;;;15.35;66.17;99020.17;105312;1257;60615;-60
2023/10/26 06:52:51;;;;;;;10.80;6.70;;;;;;;15.38;66.01;99023.59;105148;1257;65485;-61
2023/10/26 06:55:18;;;;;;;10.40;7.00;;;;;;;15.40;65.99;99025.58;105925;1256;60465;-59
2023/10/26 06:57:58;;;;;;;12.80;7.20;;;;;;;15.40;66.03;99025.41;105310;1260;64806;-59
2023/10/26 07:00:26;;;;;;;11.40;7.20;;;;;;;15.38;65.86;99027.67;105864;1256;60463;-62
2023/10/26 07:02:54;;;;;;;12.10;8.00;;;;;;;15.35;65.96;99029.67;105542;1260;60603;-61
2023/10/26 07:05:22;;;;;;;9.00;6.40;;;;;;;15.33;66.03;99029.70;105131;1261;64941;-62
2023/10/26 07:07:50;;;;;;;10.80;6.80;;;;;;;15.34;65.81;99030.64;105217;1254;60510;-62
2023/10/26 07:10:19;;;;;;;10.60;7.20;;;;;;;15.32;65.50;99033.61;105228;1257;63723;-62
2023/10/26 07:12:47;;;;;;;10.00;6.90;;;;;;;15.31;65.61;99032.48;105916;1257;60578;-61
2023/10/26 07:15:15;;;;;;;12.30;8.00;;;;;;;15.29;65.83;99037.69;105980;1259;60532;-60
2023/10/26 07:17:45;;;;;;;9.50;6.60;;;;;;;15.29;65.98;99043.56;105197;1254;65022;-61
2023/10/26 07:20:13;;;;;;;10.10;7.20;;;;;;;15.29;65.95;99042.99;105204;1260;60471;-59
2023/10/26 07:22:42;;;;;;;10.00;6.80;;;;;;;15.33;65.69;99039.61;105111;1259;64324;-59
2023/10/26 07:25:10;;;;;;;11.40;6.80;;;;;;;15.33;65.26;99040.80;105431;1260;60425;-61
2023/10/26 07:27:38;;;;;;;11.50;6.70;;;;;;;15.32;65.31;99045.86;105209;1254;60532;-65
2023/10/26 07:30:07;;;;;;;12.80;6.80;;;;;;;15.31;65.43;99050.05;105362;1257;63798;-63
2023/10/26 07:32:35;;;;;;;9.10;6.20;;;;;;;15.29;65.55;99057.33;105466;1259;60498;-62
2023/10/26 07:35:05;;;;;;;11.00;6.80;;;;;;;15.26;65.52;99059.98;105127;1260;62547;-67
2023/10/26 07:37:33;;;;;;;10.20;6.30;;;;;;;15.28;65.37;99065.21;105469;1260;60514;-62
2023/10/26 07:40:01;;;;;;;11.40;6.20;;;;;;;15.31;64.92;99066.86;105532;1257;60431;-61
2023/10/26 07:42:48;;;;;;;10.80;5.80;;;;;;;15.31;64.31;99067.35;105224;1260;65477;-63
2023/10/26 07:45:16;;;;;;;9.30;5.80;;;;;;;15.29;64.35;99071.89;105082;1260;62595;-65
2023/10/26 07:47:44;;;;;;;9.90;6.20;;;;;;;15.27;64.56;99070.71;105171;1257;63797;-63
2023/10/26 07:50:14;;;;;;;9.20;6.30;;;;;;;15.26;64.31;99071.56;105166;1260;60507;-64
2023/10/26 07:52:44;;;;;;;8.90;5.90;;;;;;;15.24;64.12;99072.20;106063;1256;60454;-64
2023/10/26 07:55:15;;;;;;;9.20;5.80;;;;;;;15.30;64.16;99070.31;105140;1254;72546;-64
2023/10/26 07:57:43;;;;;;;10.70;6.80;;;;;;;15.37;63.93;99072.80;105200;1254;63113;-62
2023/10/26 08:00:12;;;;;;;9.10;5.60;;;;;;;15.38;63.50;99070.73;105209;1254;65355;-61
2023/10/26 08:02:40;;;;;;;9.80;6.00;;;;;;;15.35;63.35;99078.33;105415;1254;62714;-62
2023/10/26 08:05:09;;;;;;;11.00;6.10;;;;;;;15.33;63.22;99078.79;105136;1260;60437;-60
2023/10/26 08:07:37;;;;;;;12.70;6.70;;;;;;;15.31;63.39;99071.96;105250;1257;64845;-59
2023/10/26 08:10:05;;;;;;;9.60;5.60;;;;;;;15.38;63.53;99075.70;105138;1259;62121;-61
2023/10/26 08:12:39;;;;;;;8.60;6.00;;;;;;;15.47;63.26;99080.27;105373;1255;63843;-62
2023/10/26 08:15:08;;;;;;;11.10;6.40;;;;;;;15.54;63.33;99078.20;105162;1254;61742;-61
2023/10/26 08:17:55;;;;;;;8.80;5.40;;;;;;;15.62;63.03;99078.05;105118;1260;60075;-60
2023/10/26 08:20:24;;;;;;;9.00;5.20;;;;;;;15.68;62.41;99074.04;105822;1254;65345;-61
2023/10/26 08:22:52;;;;;;;9.70;5.90;;;;;;;15.72;62.42;99073.27;105861;1254;61582;-63
2023/10/26 08:25:25;;;;;;;8.90;5.20;;;;;;;15.78;62.40;99069.40;105136;1260;63765;-60
2023/10/26 08:27:53;;;;;;;9.00;5.30;;;;;;;15.90;61.95;99071.04;106555;1257;60412;-60
2023/10/26 08:30:20;;;;;;;9.80;4.50;;;;;;;16.02;61.77;99070.36;105120;1254;60389;-59
2023/10/26 08:32:53;;;;;;;8.80;4.80;;;;;;;16.17;61.45;99067.17;106338;1254;65198;-61
2023/10/26 08:35:22;;;;;;;11.10;4.80;;;;;;;16.32;60.69;99076.65;105280;1260;60427;-62
2023/10/26 08:37:52;;;;;;;6.50;3.70;;;;;;;16.44;59.45;99085.90;105310;1260;64688;-61
2023/10/26 08:40:21;;;;;;;6.90;3.90;;;;;;;16.54;58.25;99089.04;105222;1260;60463;-61
2023/10/26 08:42:48;;;;;;;10.80;4.00;;;;;;;16.62;57.84;99090.69;105213;1257;60370;-59
2023/10/26 08:45:27;;;;;;;6.90;4.00;;;;;;;16.68;57.66;99090.27;105351;1254;66054;-59
2023/10/26 08:47:56;;;;;;;7.20;3.60;;;;;;;16.74;57.24;99090.85;105405;1257;62596;-63
2023/10/26 08:50:24;;;;;;;6.50;3.60;;;;;;;16.81;57.01;99093.23;105797;1254;65859;-65
2023/10/26 08:52:52;;;;;;;7.80;3.60;;;;;;;16.89;56.51;99088.56;105379;1258;60390;-60
2023/10/26 08:55:20;;;;;;;6.50;4.20;;;;;;;16.93;56.13;99086.91;105116;1254;60649;-61
2023/10/26 08:57:53;;;;;;;7.10;3.60;;;;;;;16.93;55.52;99097.16;105556;1256;63917;-61
2023/10/26 09:00:22;;;;;;;6.80;3.70;;;;;;;16.86;54.36;99097.05;106103;1257;61812;-60
2023/10/26 09:02:50;;;;;;;6.60;3.70;;;;;;;16.76;54.25;99094.55;105927;1256;63795;-63
2023/10/26 09:05:20;;;;;;;7.10;4.20;;;;;;;16.69;54.49;99093.47;105176;1254;60507;-60
2023/10/26 09:07:51;;;;;;;6.70;3.90;;;;;;;16.64;55.00;99094.70;106477;1256;60358;-62
2023/10/26 09:10:30;;;;;;;6.90;4.00;;;;;;;16.61;54.82;99097.99;105591;1257;67069;-63
2023/10/26 09:13:03;;;;;;;6.50;3.40;;;;;;;16.61;54.80;99103.17;105855;1260;60691;-62
2023/10/26 09:15:46;;;;;;;8.20;4.70;;;;;;;16.63;54.71;99103.85;105728;1257;62838;-61
2023/10/26 09:18:15;;;;;;;8.90;4.20;;;;;;;16.62;54.62;99109.52;105651;1253;60501;-64
2023/10/26 09:20:44;;;;;;;7.20;3.80;;;;;;;16.60;54.31;99110.32;105822;1254;60523;-63
2023/10/26 09:23:30;;;;;;;7.90;4.60;;;;;;;16.59;54.57;99110.19;105938;1254;65334;-63
2023/10/26 09:26:16;;;;;;;6.60;4.10;;;;;;;16.60;54.71;99112.15;106098;1257;63791;-63
2023/10/26 09:28:54;;;;;;;7.20;4.40;;;;;;;16.62;54.89;99109.69;105508;1254;63720;-63
2023/10/26 09:31:24;;;;;;;6.80;4.50;;;;;;;16.63;55.14;99109.20;106034;1254;60564;-63
2023/10/26 09:33:52;;;;;;;7.60;4.40;;;;;;;16.65;55.51;99107.91;106307;1257;60373;-59
2023/10/26 09:36:25;;;;;;;8.00;4.20;;;;;;;16.71;55.39;99108.20;105858;1256;63772;-61
2023/10/26 09:38:56;;;;;;;8.10;4.60;;;;;;;16.78;55.16;99105.54;106249;1253;60819;-60
2023/10/26 09:41:24;;;;;;;6.00;3.80;;;;;;;16.85;55.06;99098.61;105321;1254;74077;-61
2023/10/26 09:43:52;;;;;;;7.50;4.50;;;;;;;16.93;54.90;99096.40;105986;1253;60484;-62
2023/10/26 09:46:20;;;;;;;7.30;4.40;;;;;;;17.03;54.81;99094.61;106013;1254;60390;-60
2023/10/26 09:48:48;;;;;;;7.10;4.40;;;;;;;17.12;53.66;99094.13;105472;1254;63782;-62
2023/10/26 09:51:16;;;;;;;8.70;4.20;;;;;;;17.18;53.33;99092.40;105395;1257;62934;-60
2023/10/26 09:53:46;;;;;;;8.40;5.00;;;;;;;17.21;52.99;99095.64;105443;1257;62549;-62
2023/10/26 09:56:22;;;;;;;7.40;4.60;;;;;;;17.23;52.94;99098.34;105340;1257;60671;-60
2023/10/26 09:58:51;;;;;;;9.80;5.20;;;;;;;17.25;52.40;99103.80;106124;1253;60597;-61
2023/10/26 10:01:37;;;;;;;7.10;4.60;;;;;;;17.22;52.20;99111.45;106088;1252;65039;-59
2023/10/26 10:04:09;;;;;;;9.50;5.60;;;;;;;17.15;52.37;99103.86;105626;1254;62011;-59
2023/10/26 10:06:53;;;;;;;8.50;5.00;;;;;;;17.10;52.58;99099.34;105669;1254;64293;-61
2023/10/26 10:09:22;;;;;;;7.60;4.50;;;;;;;17.14;53.03;99097.94;105975;1254;60553;-60
2023/10/26 10:12:05;;;;;;;8.40;4.80;;;;;;;17.25;52.89;99087.23;105478;1254;60556;-60
2023/10/26 10:14:50;;;;;;;9.00;5.60;;;;;;;17.39;52.72;99090.64;105802;1254;64242;-63
2023/10/26 10:17:22;;;;;;;8.10;4.60;;;;;;;17.55;52.20;99088.61;106225;1254;62267;-62
2023/10/26 10:20:18;;;;;;;7.30;4.30;;;;;;;17.67;52.67;99087.59;105350;1258;63840;-61
2023/10/26 10:22:47;;;;;;;8.10;4.90;;;;;;;17.82;52.33;99080.16;105253;1257;60338;-65
2023/10/26 10:25:17;;;;;;;8.90;5.50;;;;;;;17.90;51.79;99078.49;105508;1254;60622;-63
2023/10/26 10:27:48;;;;;;;8.80;5.20;;;;;;;17.91;51.46;99074.35;107728;1256;64917;-63
2023/10/26 10:30:23;;;;;;;9.70;5.20;;;;;;;17.92;51.42;99072.64;105337;1254;61568;-63
2023/10/26 10:32:52;;;;;;;7.70;4.80;;;;;;;17.95;51.66;99074.45;105422;1254;63838;-59
2023/10/26 10:35:21;;;;;;;9.10;4.80;;;;;;;17.98;51.72;99072.84;106875;1253;60379;-59
2023/10/26 10:38:10;;;;;;;7.70;4.80;;;;;;;18.00;51.64;99069.08;105413;1254;60559;-62
2023/10/26 10:40:40;;;;;;;8.10;5.30;;;;;;;18.00;51.50;99068.20;105393;1259;65533;-63
2023/10/26 10:43:07;;;;;;;9.30;4.70;;;;;;;17.97;51.25;99066.42;105541;1254;61968;-59
2023/10/26 10:45:35;;;;;;;7.60;4.80;;;;;;;17.92;51.71;99072.31;105245;1259;73076;-66
2023/10/26 10:48:04;;;;;;;7.10;4.70;;;;;;;17.91;51.77;99072.11;109274;1254;59889;-61
2023/10/26 10:50:32;;;;;;;7.00;4.50;;;;;;;17.88;51.95;99068.94;107285;1254;60161;-61
2023/10/26 10:52:59;;;;;;;8.30;5.00;;;;;;;17.84;51.76;99070.10;105252;1254;63707;-60
2023/10/26 10:55:30;;;;;;;7.80;4.80;;;;;;;17.84;51.93;99068.06;105424;1257;60454;-62
2023/10/26 10:58:02;;;;;;;9.10;4.90;;;;;;;17.91;52.01;99072.59;105376;1254;63929;-62
2023/10/26 11:00:36;;;;;;;7.10;4.90;;;;;;;17.99;51.61;99074.48;105347;1254;60578;-62
2023/10/26 11:03:04;;;;;;;8.70;5.40;;;;;;;18.09;51.60;99068.52;105544;1253;60436;-63
2023/10/26 11:05:38;;;;;;;8.60;4.90;;;;;;;18.18;51.62;99066.77;105701;1254;65372;-59
2023/10/26 11:08:06;;;;;;;7.00;4.60;;;;;;;18.26;50.84;99062.99;105484;1254;61966;-61
2023/10/26 11:10:34;;;;;;;6.40;4.50;;;;;;;18.30;50.59;99060.13;105164;1257;63833;-58
2023/10/26 11:13:02;;;;;;;6.90;4.40;;;;;;;18.37;50.77;99061.35;105481;1254;60484;-59
2023/10/26 11:15:34;;;;;;;7.90;4.50;;;;;;;18.45;50.68;99060.48;105172;1254;60895;-57
2023/10/26 11:18:02;;;;;;;6.40;4.20;;;;;;;18.49;50.28;99059.84;105531;1253;63781;-59
2023/10/26 11:20:40;;;;;;;7.40;4.60;;;;;;;18.46;50.32;99066.22;105592;1253;61564;-60
2023/10/26 11:23:09;;;;;;;8.20;4.50;;;;;;;18.42;50.24;99066.39;105177;1253;63434;-58
2023/10/26 11:25:37;;;;;;;7.10;4.90;;;;;;;18.36;50.13;99071.64;105128;1257;60841;-60
2023/10/26 11:28:05;;;;;;;7.50;4.60;;;;;;;18.26;50.25;99075.12;105501;1254;60504;-67
2023/10/26 11:30:50;;;;;;;6.40;3.90;;;;;;;18.15;50.50;99072.13;105628;1257;63726;-61
2023/10/26 11:33:35;;;;;;;6.50;4.20;;;;;;;18.07;51.15;99073.19;105095;1254;61524;-56